sensor_id;sensor_type;location;lat;lon;timestamp;pressure;altitude;pressure_sealevel;temperature;humidity
6599;BME280;3335;43.198;27.918;2022-08-16T00:02:17;152829.13;;;22.37;100.00
6599;BME280;3335;43.198;27.918;2022-08-16T00:04:44;152831.63;;;22.38;100.00
6599;BME280;3335;43.198;27.918;2022-08-16T00:07:11;152812.75;;;22.31;100.00
6599;BME280;3335;43.198;27.918;2022-08-16T00:09:38;152822.81;;;22.35;100.00
6599;BME280;3335;43.198;27.918;2022-08-16T00:12:05;152851.78;;;22.46;100.00
6599;BME280;3335;43.198;27.918;2022-08-16T00:14:32;152826.59;;;22.36;100.00
6599;BME280;3335;43.198;27.918;2022-08-16T00:17:01;152840.47;;;22.42;100.00
6599;BME280;3335;43.198;27.918;2022-08-16T00:19:31;152840.47;;;22.42;100.00
6599;BME280;3335;43.198;27.918;2022-08-16T00:21:59;152831.63;;;22.38;100.00
6599;BME280;3335;43.198;27.918;2022-08-16T00:24:27;152808.94;;;22.29;100.00
6599;BME280;3335;43.198;27.918;2022-08-16T00:26:54;152811.47;;;22.30;100.00
6599;BME280;3335;43.198;27.918;2022-08-16T00:29:21;152808.94;;;22.29;100.00
6599;BME280;3335;43.198;27.918;2022-08-16T00:31:50;152782.53;;;22.18;100.00
6599;BME280;3335;43.198;27.918;2022-08-16T00:34:20;152766.16;;;22.12;100.00
6599;BME280;3335;43.198;27.918;2022-08-16T00:36:47;152778.75;;;22.17;100.00
6599;BME280;3335;43.198;27.918;2022-08-16T00:39:16;152733.44;;;21.99;100.00
6599;BME280;3335;43.198;27.918;2022-08-16T00:41:45;152757.34;;;22.08;100.00
6599;BME280;3335;43.198;27.918;2022-08-16T00:44:13;152769.94;;;22.13;100.00
6599;BME280;3335;43.198;27.918;2022-08-16T00:46:44;152746.00;;;22.04;100.00
6599;BME280;3335;43.198;27.918;2022-08-16T00:49:14;152764.88;;;22.11;100.00
6599;BME280;3335;43.198;27.918;2022-08-16T00:51:42;152776.22;;;22.16;100.00
6599;BME280;3335;43.198;27.918;2022-08-16T00:54:09;152732.16;;;21.98;100.00
6599;BME280;3335;43.198;27.918;2022-08-16T00:56:39;152701.88;;;21.86;100.00
6599;BME280;3335;43.198;27.918;2022-08-16T00:59:10;152758.63;;;22.09;100.00
6599;BME280;3335;43.198;27.918;2022-08-16T01:01:38;152746.00;;;22.04;100.00
6599;BME280;3335;43.198;27.918;2022-08-16T01:04:06;152735.94;;;22.00;100.00
6599;BME280;3335;43.198;27.918;2022-08-16T01:06:35;152703.13;;;21.87;100.00
6599;BME280;3335;43.198;27.918;2022-08-16T01:09:05;152728.38;;;21.97;100.00
6599;BME280;3335;43.198;27.918;2022-08-16T01:11:35;152714.47;;;21.91;100.00
6599;BME280;3335;43.198;27.918;2022-08-16T01:14:07;152756.09;;;22.08;100.00
6599;BME280;3335;43.198;27.918;2022-08-16T01:16:36;152756.09;;;22.08;100.00
6599;BME280;3335;43.198;27.918;2022-08-16T01:19:10;152762.34;;;22.10;100.00
6599;BME280;3335;43.198;27.918;2022-08-16T01:21:44;152761.09;;;22.10;100.00
6599;BME280;3335;43.198;27.918;2022-08-16T01:24:19;152746.00;;;22.04;100.00
6599;BME280;3335;43.198;27.918;2022-08-16T01:26:48;152757.34;;;22.08;100.00
6599;BME280;3335;43.198;27.918;2022-08-16T01:29:20;152753.56;;;22.07;100.00
6599;BME280;3335;43.198;27.918;2022-08-16T01:31:49;152723.34;;;21.95;100.00
6599;BME280;3335;43.198;27.918;2022-08-16T01:34:17;152735.94;;;22.00;100.00
6599;BME280;3335;43.198;27.918;2022-08-16T01:36:44;152718.25;;;21.93;100.00
6599;BME280;3335;43.198;27.918;2022-08-16T01:39:15;152715.72;;;21.92;100.00
6599;BME280;3335;43.198;27.918;2022-08-16T01:41:45;152667.88;;;21.72;100.00
6599;BME280;3335;43.198;27.918;2022-08-16T01:44:12;152693.06;;;21.82;100.00
6599;BME280;3335;43.198;27.918;2022-08-16T01:46:42;152655.28;;;21.67;100.00
6599;BME280;3335;43.198;27.918;2022-08-16T01:49:12;152667.88;;;21.72;100.00
6599;BME280;3335;43.198;27.918;2022-08-16T01:51:41;152679.22;;;21.77;100.00
6599;BME280;3335;43.198;27.918;2022-08-16T01:54:08;152672.94;;;21.74;100.00
6599;BME280;3335;43.198;27.918;2022-08-16T01:56:36;152606.25;;;21.48;100.00
6599;BME280;3335;43.198;27.918;2022-08-16T01:59:07;152649.03;;;21.65;100.00
6599;BME280;3335;43.198;27.918;2022-08-16T02:01:34;152518.06;;;21.12;100.00
6599;BME280;3335;43.198;27.918;2022-08-16T02:04:01;152662.88;;;21.70;100.00
6599;BME280;3335;43.198;27.918;2022-08-16T02:06:29;152652.81;;;21.66;100.00
6599;BME280;3335;43.198;27.918;2022-08-16T02:08:55;152620.03;;;21.53;100.00
6599;BME280;3335;43.198;27.918;2022-08-16T02:11:23;152617.56;;;21.52;100.00
6599;BME280;3335;43.198;27.918;2022-08-16T02:13:51;152529.44;;;21.17;100.00
6599;BME280;3335;43.198;27.918;2022-08-16T02:16:19;152604.97;;;21.47;100.00
6599;BME280;3335;43.198;27.918;2022-08-16T02:18:46;152587.31;;;21.40;100.00
6599;BME280;3335;43.198;27.918;2022-08-16T02:21:14;152597.38;;;21.44;100.00
6599;BME280;3335;43.198;27.918;2022-08-16T02:23:43;152587.31;;;21.40;100.00
6599;BME280;3335;43.198;27.918;2022-08-16T02:26:11;152564.69;;;21.31;100.00
6599;BME280;3335;43.198;27.918;2022-08-16T02:28:38;152571.00;;;21.33;100.00
6599;BME280;3335;43.198;27.918;2022-08-16T02:31:07;152438.81;;;20.80;100.00
6599;BME280;3335;43.198;27.918;2022-08-16T02:33:36;152571.00;;;21.33;100.00
6599;BME280;3335;43.198;27.918;2022-08-16T02:36:04;152563.41;;;21.30;100.00
6599;BME280;3335;43.198;27.918;2022-08-16T02:38:31;152544.56;;;21.23;100.00
6599;BME280;3335;43.198;27.918;2022-08-16T02:41:00;152564.69;;;21.31;100.00
6599;BME280;3335;43.198;27.918;2022-08-16T02:43:30;152544.56;;;21.23;100.00
6599;BME280;3335;43.198;27.918;2022-08-16T02:45:58;152557.16;;;21.28;100.00
6599;BME280;3335;43.198;27.918;2022-08-16T02:48:26;152526.91;;;21.16;100.00
6599;BME280;3335;43.198;27.918;2022-08-16T02:50:57;152500.44;;;21.05;100.00
6599;BME280;3335;43.198;27.918;2022-08-16T02:53:24;152504.22;;;21.07;100.00
6599;BME280;3335;43.198;27.918;2022-08-16T02:55:51;152519.34;;;21.13;100.00
6599;BME280;3335;43.198;27.918;2022-08-16T02:58:19;152499.22;;;21.05;100.00
6599;BME280;3335;43.198;27.918;2022-08-16T03:00:47;152486.63;;;21.00;100.00
6599;BME280;3335;43.198;27.918;2022-08-16T03:03:14;152489.09;;;21.01;100.00
6599;BME280;3335;43.198;27.918;2022-08-16T03:05:41;152466.47;;;20.91;100.00
6599;BME280;3335;43.198;27.918;2022-08-16T03:08:09;152476.50;;;20.95;100.00
6599;BME280;3335;43.198;27.918;2022-08-16T03:10:36;152472.78;;;20.94;100.00
6599;BME280;3335;43.198;27.918;2022-08-16T03:13:03;152461.44;;;20.89;100.00
6599;BME280;3335;43.198;27.918;2022-08-16T03:15:30;152471.50;;;20.93;100.00
6599;BME280;3335;43.198;27.918;2022-08-16T03:17:57;152463.97;;;20.90;100.00
6599;BME280;3335;43.198;27.918;2022-08-16T03:20:25;152457.66;;;20.88;100.00
6599;BME280;3335;43.198;27.918;2022-08-16T03:22:52;152486.63;;;21.00;100.00
6599;BME280;3335;43.198;27.918;2022-08-16T03:25:21;152486.63;;;21.00;100.00
6599;BME280;3335;43.198;27.918;2022-08-16T03:27:48;152496.69;;;21.04;100.00
6599;BME280;3335;43.198;27.918;2022-08-16T03:30:17;152475.31;;;20.95;100.00
6599;BME280;3335;43.198;27.918;2022-08-16T03:32:44;152451.41;;;20.85;100.00
6599;BME280;3335;43.198;27.918;2022-08-16T03:35:11;152461.44;;;20.89;100.00
6599;BME280;3335;43.198;27.918;2022-08-16T03:37:38;152456.41;;;20.87;100.00
6599;BME280;3335;43.198;27.918;2022-08-16T03:40:09;152458.94;;;20.88;100.00
6599;BME280;3335;43.198;27.918;2022-08-16T03:42:38;152463.97;;;20.90;100.00
6599;BME280;3335;43.198;27.918;2022-08-16T03:45:05;152468.97;;;20.92;100.00
6599;BME280;3335;43.198;27.918;2022-08-16T03:47:33;152471.50;;;20.93;100.00
6599;BME280;3335;43.198;27.918;2022-08-16T03:50:00;152458.94;;;20.88;100.00
6599;BME280;3335;43.198;27.918;2022-08-16T03:52:27;152456.41;;;20.87;100.00
6599;BME280;3335;43.198;27.918;2022-08-16T03:54:54;152461.44;;;20.89;100.00
6599;BME280;3335;43.198;27.918;2022-08-16T03:57:21;152458.94;;;20.88;100.00
6599;BME280;3335;43.198;27.918;2022-08-16T03:59:49;152458.94;;;20.88;100.00
6599;BME280;3335;43.198;27.918;2022-08-16T04:02:16;152468.97;;;20.92;100.00
6599;BME280;3335;43.198;27.918;2022-08-16T04:04:44;152443.81;;;20.82;100.00
6599;BME280;3335;43.198;27.918;2022-08-16T04:07:11;152466.47;;;20.91;100.00
6599;BME280;3335;43.198;27.918;2022-08-16T04:09:38;152468.97;;;20.92;100.00
6599;BME280;3335;43.198;27.918;2022-08-16T04:12:06;152481.56;;;20.98;100.00
6599;BME280;3335;43.198;27.918;2022-08-16T04:14:33;152481.56;;;20.98;100.00
6599;BME280;3335;43.198;27.918;2022-08-16T04:17:03;152476.50;;;20.95;100.00
6599;BME280;3335;43.198;27.918;2022-08-16T04:19:30;152481.56;;;20.98;100.00
6599;BME280;3335;43.198;27.918;2022-08-16T04:21:59;152494.16;;;21.03;100.00
6599;BME280;3335;43.198;27.918;2022-08-16T04:24:26;152494.16;;;21.03;100.00
6599;BME280;3335;43.198;27.918;2022-08-16T04:26:53;152494.16;;;21.03;100.00
6599;BME280;3335;43.198;27.918;2022-08-16T04:29:20;152520.66;;;21.13;100.00
6599;BME280;3335;43.198;27.918;2022-08-16T04:31:47;152542.03;;;21.22;100.00
6599;BME280;3335;43.198;27.918;2022-08-16T04:34:16;152564.69;;;21.31;100.00
6599;BME280;3335;43.198;27.918;2022-08-16T04:36:42;152577.28;;;21.36;100.00
6599;BME280;3335;43.198;27.918;2022-08-16T04:39:10;152583.53;;;21.38;100.00
6599;BME280;3335;43.198;27.918;2022-08-16T04:41:36;152579.78;;;21.37;100.00
6599;BME280;3335;43.198;27.918;2022-08-16T04:44:04;152567.22;;;21.32;100.00
6599;BME280;3335;43.198;27.918;2022-08-16T04:46:32;152588.59;;;21.41;100.00
6599;BME280;3335;43.198;27.918;2022-08-16T04:48:59;152602.44;;;21.46;100.00
6599;BME280;3335;43.198;27.918;2022-08-16T04:51:27;152601.19;;;21.46;100.00
6599;BME280;3335;43.198;27.918;2022-08-16T04:53:54;152617.56;;;21.52;100.00
6599;BME280;3335;43.198;27.918;2022-08-16T04:56:20;152618.78;;;21.53;100.00
6599;BME280;3335;43.198;27.918;2022-08-16T04:58:47;152633.91;;;21.59;100.00
6599;BME280;3335;43.198;27.918;2022-08-16T05:01:14;152642.69;;;21.62;100.00
6599;BME280;3335;43.198;27.918;2022-08-16T05:03:43;152642.69;;;21.62;100.00
6599;BME280;3335;43.198;27.918;2022-08-16T05:06:10;152662.88;;;21.70;100.00
6599;BME280;3335;43.198;27.918;2022-08-16T05:08:39;152672.94;;;21.74;100.00
6599;BME280;3335;43.198;27.918;2022-08-16T05:11:08;152675.47;;;21.75;100.00
6599;BME280;3335;43.198;27.918;2022-08-16T05:13:37;152695.59;;;21.83;100.00
6599;BME280;3335;43.198;27.918;2022-08-16T05:16:05;152709.44;;;21.89;100.00
6599;BME280;3335;43.198;27.918;2022-08-16T05:18:34;152717.00;;;21.92;100.00
6599;BME280;3335;43.198;27.918;2022-08-16T05:21:01;152730.91;;;21.98;100.00
6599;BME280;3335;43.198;27.918;2022-08-16T05:23:28;152730.91;;;21.98;100.00
6599;BME280;3335;43.198;27.918;2022-08-16T05:25:56;152748.53;;;22.05;100.00
6599;BME280;3335;43.198;27.918;2022-08-16T05:28:25;152762.34;;;22.10;100.00
6599;BME280;3335;43.198;27.918;2022-08-16T05:30:52;152776.22;;;22.16;100.00
6599;BME280;3335;43.198;27.918;2022-08-16T05:33:20;152792.59;;;22.22;100.00
6599;BME280;3335;43.198;27.918;2022-08-16T05:35:48;152821.53;;;22.34;100.00
6599;BME280;3335;43.198;27.918;2022-08-16T05:38:15;152781.28;;;22.18;100.00
6599;BME280;3335;43.198;27.918;2022-08-16T05:40:42;152869.41;;;22.53;100.00
6599;BME280;3335;43.198;27.918;2022-08-16T05:43:11;152836.66;;;22.40;100.00
6599;BME280;3335;43.198;27.918;2022-08-16T05:45:38;152899.66;;;22.65;100.00
6599;BME280;3335;43.198;27.918;2022-08-16T05:48:05;152904.69;;;22.67;100.00
6599;BME280;3335;43.198;27.918;2022-08-16T05:50:31;152940.00;;;22.82;100.00
6599;BME280;3335;43.198;27.918;2022-08-16T05:52:58;152945.06;;;22.84;100.00
6599;BME280;3335;43.198;27.918;2022-08-16T05:55:25;152977.81;;;22.97;100.00
6599;BME280;3335;43.198;27.918;2022-08-16T05:57:52;153003.00;;;23.07;100.00
6599;BME280;3335;43.198;27.918;2022-08-16T06:00:20;153033.22;;;23.19;100.00
6599;BME280;3335;43.198;27.918;2022-08-16T06:02:47;153048.34;;;23.25;100.00
6599;BME280;3335;43.198;27.918;2022-08-16T06:05:15;153082.38;;;23.39;100.00
6599;BME280;3335;43.198;27.918;2022-08-16T06:07:43;152995.47;;;23.04;100.00
6599;BME280;3335;43.198;27.918;2022-08-16T06:10:10;153149.25;;;23.66;100.00
6599;BME280;3335;43.198;27.918;2022-08-16T06:12:38;153166.88;;;23.73;100.00
6599;BME280;3335;43.198;27.918;2022-08-16T06:15:08;153192.09;;;23.83;100.00
6599;BME280;3335;43.198;27.918;2022-08-16T06:17:37;153207.22;;;23.89;100.00
6599;BME280;3335;43.198;27.918;2022-08-16T06:20:05;153212.25;;;23.91;100.00
6599;BME280;3335;43.198;27.918;2022-08-16T06:22:33;153253.88;;;24.08;100.00
6599;BME280;3335;43.198;27.918;2022-08-16T06:25:00;153277.88;;;24.17;100.00
6599;BME280;3335;43.198;27.918;2022-08-16T06:27:27;153299.31;;;24.26;100.00
6599;BME280;3335;43.198;27.918;2022-08-16T06:29:54;153330.81;;;24.38;100.00
6599;BME280;3335;43.198;27.918;2022-08-16T06:32:21;153351.03;;;24.47;100.00
6599;BME280;3335;43.198;27.918;2022-08-16T06:34:50;153391.34;;;24.63;100.00
6599;BME280;3335;43.198;27.918;2022-08-16T06:37:17;153431.72;;;24.79;100.00
6599;BME280;3335;43.198;27.918;2022-08-16T06:39:44;153454.47;;;24.88;100.00
6599;BME280;3335;43.198;27.918;2022-08-16T06:42:11;153483.47;;;25.00;100.00
6599;BME280;3335;43.198;27.918;2022-08-16T06:44:38;153497.34;;;25.05;100.00
6599;BME280;3335;43.198;27.918;2022-08-16T06:47:05;153535.19;;;25.20;100.00
6599;BME280;3335;43.198;27.918;2022-08-16T06:49:32;153557.91;;;25.30;100.00
6599;BME280;3335;43.198;27.918;2022-08-16T06:52:01;153590.69;;;25.43;100.00
6599;BME280;3335;43.198;27.918;2022-08-16T06:54:28;153626.06;;;25.57;100.00
6599;BME280;3335;43.198;27.918;2022-08-16T06:56:55;153646.31;;;25.65;100.00
6599;BME280;3335;43.198;27.918;2022-08-16T06:59:22;153672.75;;;25.76;100.00
6599;BME280;3335;43.198;27.918;2022-08-16T07:01:49;153689.19;;;25.82;100.00
6599;BME280;3335;43.198;27.918;2022-08-16T07:04:16;153724.53;;;25.96;100.00
6599;BME280;3335;43.198;27.918;2022-08-16T07:06:43;153735.88;;;26.01;100.00
6599;BME280;3335;43.198;27.918;2022-08-16T07:09:12;153763.66;;;26.12;100.00
6599;BME280;3335;43.198;27.918;2022-08-16T07:11:39;153790.25;;;26.23;100.00
6599;BME280;3335;43.198;27.918;2022-08-16T07:14:06;153817.97;;;26.34;100.00
6599;BME280;3335;43.198;27.918;2022-08-16T07:16:33;153830.59;;;26.39;100.00
6599;BME280;3335;43.198;27.918;2022-08-16T07:19:00;153850.78;;;26.47;100.00
6599;BME280;3335;43.198;27.918;2022-08-16T07:21:27;153868.50;;;26.54;100.00
6599;BME280;3335;43.198;27.918;2022-08-16T07:23:54;153903.84;;;26.68;100.00
6599;BME280;3335;43.198;27.918;2022-08-16T07:26:24;153906.38;;;26.69;100.00
6599;BME280;3335;43.198;27.918;2022-08-16T07:28:51;153970.81;;;26.95;100.00
6599;BME280;3335;43.198;27.918;2022-08-16T07:31:19;153958.19;;;26.90;100.00
6599;BME280;3335;43.198;27.918;2022-08-16T07:33:46;154018.81;;;27.14;100.00
6599;BME280;3335;43.198;27.918;2022-08-16T07:36:14;154041.53;;;27.23;100.00
6599;BME280;3335;43.198;27.918;2022-08-16T07:38:42;154046.59;;;27.25;100.00
6599;BME280;3335;43.198;27.918;2022-08-16T07:41:09;154074.41;;;27.36;100.00
6599;BME280;3335;43.198;27.918;2022-08-16T07:43:37;154025.16;;;27.17;100.00
6599;BME280;3335;43.198;27.918;2022-08-16T07:46:05;154118.66;;;27.54;100.00
6599;BME280;3335;43.198;27.918;2022-08-16T07:48:32;154143.94;;;27.64;100.00
6599;BME280;3335;43.198;27.918;2022-08-16T07:50:59;154159.06;;;27.70;100.00
6599;BME280;3335;43.198;27.918;2022-08-16T07:53:27;154196.97;;;27.85;100.00
6599;BME280;3335;43.198;27.918;2022-08-16T07:55:54;154232.34;;;28.00;100.00
6599;BME280;3335;43.198;27.918;2022-08-16T07:58:21;154256.38;;;28.09;100.00
6599;BME280;3335;43.198;27.918;2022-08-16T08:00:50;154269.06;;;28.14;100.00
6599;BME280;3335;43.198;27.918;2022-08-16T08:03:17;154280.44;;;28.19;100.00
6599;BME280;3335;43.198;27.918;2022-08-16T08:05:44;154285.50;;;28.21;100.00
6599;BME280;3335;43.198;27.918;2022-08-16T08:08:11;154300.69;;;28.27;100.00
6599;BME280;3335;43.198;27.918;2022-08-16T08:10:39;154338.56;;;28.42;100.00
6599;BME280;3335;43.198;27.918;2022-08-16T08:13:06;154371.47;;;28.55;100.00
6599;BME280;3335;43.198;27.918;2022-08-16T08:15:33;154382.84;;;28.60;100.00
6599;BME280;3335;43.198;27.918;2022-08-16T08:18:02;154410.66;;;28.71;100.00
6599;BME280;3335;43.198;27.918;2022-08-16T08:20:29;154425.84;;;28.77;100.00
6599;BME280;3335;43.198;27.918;2022-08-16T08:22:57;154449.88;;;28.87;100.00
6599;BME280;3335;43.198;27.918;2022-08-16T08:25:25;154457.44;;;28.90;100.00
6599;BME280;3335;43.198;27.918;2022-08-16T08:27:52;154509.28;;;29.10;100.00
6599;BME280;3335;43.198;27.918;2022-08-16T08:30:19;154535.88;;;29.21;100.00
6599;BME280;3335;43.198;27.918;2022-08-16T08:32:46;154552.28;;;29.28;100.00
6599;BME280;3335;43.198;27.918;2022-08-16T08:35:15;154573.84;;;29.36;100.00
6599;BME280;3335;43.198;27.918;2022-08-16T08:37:42;154597.88;;;29.46;100.00
6599;BME280;3335;43.198;27.918;2022-08-16T08:40:10;154618.09;;;29.54;100.00
6599;BME280;3335;43.198;27.918;2022-08-16T08:42:38;154591.53;;;29.43;100.00
6599;BME280;3335;43.198;27.918;2022-08-16T08:45:09;154644.69;;;29.65;100.00
6599;BME280;3335;43.198;27.918;2022-08-16T08:47:37;154686.41;;;29.81;100.00
6599;BME280;3335;43.198;27.918;2022-08-16T08:50:05;154713.03;;;29.92;100.00
6599;BME280;3335;43.198;27.918;2022-08-16T08:52:33;154748.44;;;30.06;100.00
6599;BME280;3335;43.198;27.918;2022-08-16T08:55:03;154771.22;;;30.15;100.00
6599;BME280;3335;43.198;27.918;2022-08-16T08:57:30;154796.53;;;30.25;100.00
6599;BME280;3335;43.198;27.918;2022-08-16T08:59:57;154747.16;;;30.06;100.00
6599;BME280;3335;43.198;27.918;2022-08-16T09:02:24;154839.53;;;30.42;98.97
6599;BME280;3335;43.198;27.918;2022-08-16T09:04:51;154859.84;;;30.51;98.00
6599;BME280;3335;43.198;27.918;2022-08-16T09:07:19;154872.47;;;30.56;97.88
6599;BME280;3335;43.198;27.918;2022-08-16T09:09:48;154892.75;;;30.64;95.97
6599;BME280;3335;43.198;27.918;2022-08-16T09:12:15;154905.41;;;30.69;93.88
6599;BME280;3335;43.198;27.918;2022-08-16T09:14:43;154943.38;;;30.84;94.39
6599;BME280;3335;43.198;27.918;2022-08-16T09:17:10;154958.53;;;30.90;90.46
6599;BME280;3335;43.198;27.918;2022-08-16T09:19:38;154971.19;;;30.95;90.08
6599;BME280;3335;43.198;27.918;2022-08-16T09:22:05;155004.13;;;31.08;89.08
6599;BME280;3335;43.198;27.918;2022-08-16T09:24:33;155001.66;;;31.07;88.74
6599;BME280;3335;43.198;27.918;2022-08-16T09:27:01;155032.00;;;31.19;88.77
6599;BME280;3335;43.198;27.918;2022-08-16T09:29:28;155056.06;;;31.29;85.30
6599;BME280;3335;43.198;27.918;2022-08-16T09:31:57;155067.44;;;31.34;83.68
6599;BME280;3335;43.198;27.918;2022-08-16T09:34:24;155087.69;;;31.42;82.10
6599;BME280;3335;43.198;27.918;2022-08-16T09:36:51;155138.41;;;31.62;81.01
6599;BME280;3335;43.198;27.918;2022-08-16T09:39:19;155176.38;;;31.77;76.97
6599;BME280;3335;43.198;27.918;2022-08-16T09:41:46;155194.09;;;31.84;73.60
6599;BME280;3335;43.198;27.918;2022-08-16T09:44:19;155187.78;;;31.82;76.41
6599;BME280;3335;43.198;27.918;2022-08-16T09:46:48;155191.59;;;31.83;69.97
6599;BME280;3335;43.198;27.918;2022-08-16T09:49:17;155201.72;;;31.87;70.34
6599;BME280;3335;43.198;27.918;2022-08-16T09:51:45;155211.84;;;31.91;64.80
6599;BME280;3335;43.198;27.918;2022-08-16T09:54:12;155244.75;;;32.04;68.56
6599;BME280;3335;43.198;27.918;2022-08-16T09:56:40;155248.56;;;32.06;66.56
6599;BME280;3335;43.198;27.918;2022-08-16T09:59:08;155275.22;;;32.17;66.21
6599;BME280;3335;43.198;27.918;2022-08-16T10:01:37;155303.06;;;32.28;65.35
6599;BME280;3335;43.198;27.918;2022-08-16T10:04:08;155319.56;;;32.34;64.41
6599;BME280;3335;43.198;27.918;2022-08-16T10:06:35;155351.19;;;32.47;63.08
6599;BME280;3335;43.198;27.918;2022-08-16T10:09:03;155376.53;;;32.57;62.41
6599;BME280;3335;43.198;27.918;2022-08-16T10:11:30;155187.78;;;31.82;62.21
6599;BME280;3335;43.198;27.918;2022-08-16T10:14:15;155363.88;;;32.52;60.94
6599;BME280;3335;43.198;27.918;2022-08-16T10:16:43;155376.53;;;32.57;60.30
6599;BME280;3335;43.198;27.918;2022-08-16T10:19:10;155403.19;;;32.68;61.05
6599;BME280;3335;43.198;27.918;2022-08-16T10:21:38;155429.81;;;32.78;59.77
6599;BME280;3335;43.198;27.918;2022-08-16T10:24:05;155399.38;;;32.66;59.62
6599;BME280;3335;43.198;27.918;2022-08-16T10:26:33;155437.41;;;32.81;62.45
6599;BME280;3335;43.198;27.918;2022-08-16T10:29:02;155432.31;;;32.79;59.39
6599;BME280;3335;43.198;27.918;2022-08-16T10:31:30;155296.75;;;32.25;60.48
6599;BME280;3335;43.198;27.918;2022-08-16T10:33:58;155428.56;;;32.78;59.42
6599;BME280;3335;43.198;27.918;2022-08-16T10:36:25;155442.50;;;32.83;59.15
6599;BME280;3335;43.198;27.918;2022-08-16T10:38:52;155493.13;;;33.04;58.64
6599;BME280;3335;43.198;27.918;2022-08-16T10:41:19;155565.41;;;33.32;57.51
6599;BME280;3335;43.198;27.918;2022-08-16T10:43:47;155600.91;;;33.47;57.00
6599;BME280;3335;43.198;27.918;2022-08-16T10:46:14;155612.31;;;33.51;57.38
6599;BME280;3335;43.198;27.918;2022-08-16T10:48:43;155642.75;;;33.63;57.79
6599;BME280;3335;43.198;27.918;2022-08-16T10:51:11;155652.94;;;33.67;57.11
6599;BME280;3335;43.198;27.918;2022-08-16T10:53:38;155594.59;;;33.44;58.04
6599;BME280;3335;43.198;27.918;2022-08-16T10:56:08;155619.94;;;33.54;57.15
6599;BME280;3335;43.198;27.918;2022-08-16T10:58:35;155607.25;;;33.49;56.65
6599;BME280;3335;43.198;27.918;2022-08-16T11:01:03;155617.41;;;33.53;56.47
6599;BME280;3335;43.198;27.918;2022-08-16T11:03:31;155647.81;;;33.65;56.38
6599;BME280;3335;43.198;27.918;2022-08-16T11:05:58;155664.34;;;33.72;56.73
6599;BME280;3335;43.198;27.918;2022-08-16T11:08:26;155706.16;;;33.89;60.83
6599;BME280;3335;43.198;27.918;2022-08-16T11:10:53;155589.50;;;33.42;82.37
6599;BME280;3335;43.198;27.918;2022-08-16T11:13:22;155693.47;;;33.83;100.00
6599;BME280;3335;43.198;27.918;2022-08-16T11:15:50;155633.84;;;33.60;92.09
6599;BME280;3335;43.198;27.918;2022-08-16T11:18:17;155690.97;;;33.82;76.92
6599;BME280;3335;43.198;27.918;2022-08-16T11:20:44;155756.88;;;34.09;85.45
6599;BME280;3335;43.198;27.918;2022-08-16T11:23:12;155761.97;;;34.11;88.90
6599;BME280;3335;43.198;27.918;2022-08-16T11:25:40;155671.94;;;33.75;95.82
6599;BME280;3335;43.198;27.918;2022-08-16T11:28:08;155731.50;;;33.99;98.53
6599;BME280;3335;43.198;27.918;2022-08-16T11:30:35;155784.81;;;34.20;91.31
6599;BME280;3335;43.198;27.918;2022-08-16T11:33:03;155784.81;;;34.20;87.22
6599;BME280;3335;43.198;27.918;2022-08-16T11:35:32;155675.75;;;33.76;90.96
6599;BME280;3335;43.198;27.918;2022-08-16T11:38:02;155652.94;;;33.67;93.68
6599;BME280;3335;43.198;27.918;2022-08-16T11:40:33;155650.34;;;33.66;93.90
6599;BME280;3335;43.198;27.918;2022-08-16T11:43:04;155590.78;;;33.42;95.85
6599;BME280;3335;43.198;27.918;2022-08-16T11:45:32;155641.47;;;33.63;97.90
6599;BME280;3335;43.198;27.918;2022-08-16T11:48:00;155655.47;;;33.68;98.09
6599;BME280;3335;43.198;27.918;2022-08-16T11:50:27;155677.03;;;33.77;97.77
6599;BME280;3335;43.198;27.918;2022-08-16T11:52:57;155742.91;;;34.03;93.84
6599;BME280;3335;43.198;27.918;2022-08-16T11:55:24;155764.50;;;34.12;94.41
6599;BME280;3335;43.198;27.918;2022-08-16T11:57:51;155754.31;;;34.08;92.24
6599;BME280;3335;43.198;27.918;2022-08-16T12:00:20;155802.56;;;34.27;91.87
6599;BME280;3335;43.198;27.918;2022-08-16T12:02:47;155789.88;;;34.22;90.79
6599;BME280;3335;43.198;27.918;2022-08-16T12:05:14;155764.50;;;34.12;90.39
6599;BME280;3335;43.198;27.918;2022-08-16T12:07:42;155800.06;;;34.26;89.64
6599;BME280;3335;43.198;27.918;2022-08-16T12:10:11;155784.81;;;34.20;91.11
6599;BME280;3335;43.198;27.918;2022-08-16T12:12:39;155853.28;;;34.47;90.42
6599;BME280;3335;43.198;27.918;2022-08-16T12:15:07;155854.56;;;34.48;93.99
6599;BME280;3335;43.198;27.918;2022-08-16T12:17:37;155703.66;;;33.88;95.02
6599;BME280;3335;43.198;27.918;2022-08-16T12:20:06;155561.66;;;33.31;99.65
6599;BME280;3335;43.198;27.918;2022-08-16T12:22:34;155432.31;;;32.79;100.00
6599;BME280;3335;43.198;27.918;2022-08-16T12:25:01;155490.66;;;33.03;99.69
6599;BME280;3335;43.198;27.918;2022-08-16T12:27:28;155488.09;;;33.02;100.00
6599;BME280;3335;43.198;27.918;2022-08-16T12:29:56;155396.84;;;32.65;100.00
6599;BME280;3335;43.198;27.918;2022-08-16T12:32:24;155445.00;;;32.84;100.00
6599;BME280;3335;43.198;27.918;2022-08-16T12:34:52;155271.41;;;32.15;100.00
6599;BME280;3335;43.198;27.918;2022-08-16T12:37:21;155011.75;;;31.11;100.00
6599;BME280;3335;43.198;27.918;2022-08-16T12:39:48;154964.88;;;30.93;100.00
6599;BME280;3335;43.198;27.918;2022-08-16T12:42:15;154831.94;;;30.39;100.00
6599;BME280;3335;43.198;27.918;2022-08-16T12:44:43;154724.41;;;29.96;100.00
6599;BME280;3335;43.198;27.918;2022-08-16T12:47:11;154428.38;;;28.78;100.00
6599;BME280;3335;43.198;27.918;2022-08-16T12:49:56;154616.84;;;29.53;100.00
6599;BME280;3335;43.198;27.918;2022-08-16T12:52:23;154571.31;;;29.35;100.00
6599;BME280;3335;43.198;27.918;2022-08-16T12:54:50;154561.22;;;29.31;100.00
6599;BME280;3335;43.198;27.918;2022-08-16T12:57:18;154677.56;;;29.78;100.00